Time;durP1;ratioP1;P1;durP2;ratioP2;P2;SDS_P1;SDS_P2;PMS_P1;PMS_P2;Temp;Humidity;BMP_temperature;BMP_pressure;BME280_temperature;BME280_humidity;BME280_pressure;Samples;Min_cycle;Max_cycle;Signal;HPM_P1;HPM_P2
2023/07/06 00:01:41;;;;;;;6.53;5.88;;;24.50;80.20;;;;;;5014357;28;20030;-83
2023/07/06 00:04:07;;;;;;;6.78;5.53;;;24.40;80.10;;;;;;4995935;28;20438;-83
2023/07/06 00:06:33;;;;;;;7.15;6.32;;;24.40;80.00;;;;;;4996023;28;20084;-82
2023/07/06 00:08:59;;;;;;;6.38;5.78;;;24.30;79.90;;;;;;5013513;28;20045;-82
2023/07/06 00:11:33;;;;;;;6.70;6.00;;;24.40;80.00;;;;;;5013463;28;20029;-82
2023/07/06 00:13:59;;;;;;;6.80;6.15;;;24.30;79.80;;;;;;5001212;28;20034;-82
2023/07/06 00:16:24;;;;;;;6.43;5.80;;;24.30;79.90;;;;;;4995816;28;20046;-82
2023/07/06 00:18:50;;;;;;;6.93;6.22;;;24.30;79.90;;;;;;4995561;28;20557;-81
2023/07/06 00:21:16;;;;;;;6.63;6.00;;;24.30;80.10;;;;;;4995561;28;20030;-81
2023/07/06 00:23:43;;;;;;;6.80;6.10;;;24.20;80.20;;;;;;4995828;28;20021;-81
2023/07/06 00:26:10;;;;;;;6.78;6.10;;;24.30;80.30;;;;;;4995949;28;20498;-82
2023/07/06 00:28:35;;;;;;;7.20;6.20;;;24.20;80.30;;;;;;5013128;28;20107;-81
2023/07/06 00:31:10;;;;;;;6.85;6.15;;;24.20;80.40;;;;;;4995889;28;20065;-82
2023/07/06 00:33:39;;;;;;;6.95;6.25;;;24.20;80.40;;;;;;4995955;28;20119;-82
2023/07/06 00:36:05;;;;;;;6.53;5.93;;;24.20;80.60;;;;;;4995602;28;20510;-81
2023/07/06 00:38:30;;;;;;;6.80;6.10;;;24.20;80.70;;;;;;5013185;28;20105;-81
2023/07/06 00:41:00;;;;;;;6.50;5.90;;;24.20;80.80;;;;;;5013245;28;20397;-82
2023/07/06 00:43:28;;;;;;;6.90;6.20;;;24.20;80.90;;;;;;4995701;28;20021;-81
2023/07/06 00:46:00;;;;;;;7.03;6.20;;;24.10;80.80;;;;;;5013067;28;20032;-81
2023/07/06 00:48:33;;;;;;;7.32;6.63;;;24.10;80.80;;;;;;5013014;28;20037;-81
2023/07/06 00:51:04;;;;;;;7.32;6.63;;;24.10;80.80;;;;;;4995304;28;20025;-81
2023/07/06 00:53:32;;;;;;;7.07;6.38;;;24.10;80.80;;;;;;4995472;28;20084;-81
2023/07/06 00:55:59;;;;;;;7.38;6.68;;;24.10;81.00;;;;;;5012670;28;20032;-82
2023/07/06 00:58:35;;;;;;;7.25;6.55;;;24.00;81.00;;;;;;4995487;28;20484;-82
2023/07/06 01:01:05;;;;;;;7.43;6.63;;;24.00;81.20;;;;;;4995252;28;20025;-81
2023/07/06 01:03:33;;;;;;;6.97;6.28;;;24.00;81.30;;;;;;4994956;28;20029;-82
2023/07/06 01:06:03;;;;;;;6.78;6.15;;;24.00;81.40;;;;;;4995256;28;20489;-81
2023/07/06 01:08:29;;;;;;;6.50;5.90;;;24.00;81.30;;;;;;4994940;28;20037;-81
2023/07/06 01:10:58;;;;;;;6.97;6.28;;;24.00;81.40;;;;;;4995101;28;20061;-82
2023/07/06 01:13:24;;;;;;;7.10;6.40;;;24.00;81.50;;;;;;5012653;28;20025;-82
2023/07/06 01:16:08;;;;;;;6.55;5.95;;;24.00;81.50;;;;;;5012358;28;20054;-81
2023/07/06 01:18:34;;;;;;;7.13;6.00;;;23.90;81.40;;;;;;4994567;28;20033;-81
2023/07/06 01:21:45;;;;;;;6.97;6.28;;;23.90;81.70;;;;;;4999487;28;20506;-84
2023/07/06 01:24:26;;;;;;;7.25;6.45;;;23.90;81.40;;;;;;5019794;28;20109;-82
2023/07/06 01:27:15;;;;;;;7.00;6.30;;;23.90;81.70;;;;;;4995030;28;20030;-82
2023/07/06 01:29:53;;;;;;;6.95;6.25;;;23.90;81.90;;;;;;4955730;28;20072;-82
2023/07/06 01:32:24;;;;;;;7.18;6.05;;;23.90;82.00;;;;;;5012842;28;20068;-82
2023/07/06 01:35:02;;;;;;;6.85;6.25;;;23.90;82.10;;;;;;4994751;28;20037;-82
2023/07/06 01:37:36;;;;;;;7.30;6.60;;;23.90;82.10;;;;;;5012549;28;20049;-82
2023/07/06 01:40:05;;;;;;;7.57;6.78;;;23.80;82.10;;;;;;4994662;28;20049;-82
2023/07/06 01:42:31;;;;;;;6.57;5.97;;;23.80;82.30;;;;;;4994732;28;20040;-82
2023/07/06 01:45:04;;;;;;;7.00;6.05;;;23.80;82.40;;;;;;4994972;28;20022;-82
2023/07/06 01:47:33;;;;;;;7.30;6.53;;;23.80;82.40;;;;;;4994577;28;20401;-82
2023/07/06 01:50:01;;;;;;;6.88;6.28;;;23.80;82.60;;;;;;5012231;28;20034;-82
2023/07/06 01:52:30;;;;;;;7.20;6.53;;;23.80;82.70;;;;;;4994167;28;20494;-82
2023/07/06 01:55:09;;;;;;;7.13;6.43;;;23.80;82.80;;;;;;5012351;28;20391;-82
2023/07/06 01:57:59;;;;;;;6.80;6.10;;;23.80;82.90;;;;;;4994401;28;20061;-82
2023/07/06 02:00:27;;;;;;;6.82;6.20;;;23.80;83.20;;;;;;4994448;28;20033;-82
2023/07/06 02:02:54;;;;;;;7.25;6.57;;;23.80;83.30;;;;;;4994170;28;20495;-82
2023/07/06 02:05:21;;;;;;;7.05;6.35;;;23.80;83.50;;;;;;4994314;28;20029;-82
2023/07/06 02:07:49;;;;;;;7.50;6.80;;;23.80;83.90;;;;;;4994154;28;20022;-82
2023/07/06 02:10:19;;;;;;;7.90;7.20;;;23.80;84.30;;;;;;4994395;28;20313;-82
2023/07/06 02:12:47;;;;;;;7.32;6.60;;;23.80;84.40;;;;;;4994394;28;20042;-82
2023/07/06 02:15:16;;;;;;;7.05;6.35;;;23.80;84.60;;;;;;4994247;28;20118;-82
2023/07/06 02:17:43;;;;;;;7.32;6.63;;;23.80;84.70;;;;;;5012007;28;20068;-82
2023/07/06 02:20:09;;;;;;;7.78;7.00;;;23.80;84.80;;;;;;4994738;28;20121;-82
2023/07/06 02:22:35;;;;;;;6.97;6.30;;;23.80;84.70;;;;;;5011861;28;20123;-82
2023/07/06 02:25:01;;;;;;;6.85;6.15;;;23.70;84.50;;;;;;4994355;28;20022;-82
2023/07/06 02:27:26;;;;;;;7.63;6.93;;;23.70;84.50;;;;;;4993985;28;20026;-82
2023/07/06 02:29:52;;;;;;;7.25;6.55;;;23.70;84.50;;;;;;4994542;28;20037;-82
2023/07/06 02:32:18;;;;;;;6.60;6.00;;;23.60;84.40;;;;;;5000284;28;20500;-82
2023/07/06 02:34:45;;;;;;;6.95;5.97;;;23.60;84.40;;;;;;4996622;28;20034;-82
2023/07/06 02:37:14;;;;;;;7.63;6.93;;;23.60;84.40;;;;;;5023395;28;20028;-83
2023/07/06 02:39:41;;;;;;;7.20;6.50;;;23.60;84.50;;;;;;5003056;28;20025;-81
2023/07/06 02:42:07;;;;;;;7.78;6.97;;;23.60;84.50;;;;;;4997866;28;20496;-81
2023/07/06 02:44:33;;;;;;;6.70;6.03;;;23.60;84.40;;;;;;5015095;28;20025;-81
2023/07/06 02:46:59;;;;;;;7.13;6.43;;;23.60;84.40;;;;;;5015767;28;20026;-81
2023/07/06 02:49:24;;;;;;;6.95;6.05;;;23.50;84.20;;;;;;4997725;28;20034;-81
2023/07/06 02:51:50;;;;;;;8.15;6.50;;;23.60;84.30;;;;;;4997934;28;20044;-81
2023/07/06 02:54:16;;;;;;;7.95;6.75;;;23.60;84.30;;;;;;4997577;28;20034;-81
2023/07/06 02:56:42;;;;;;;7.68;6.32;;;23.60;84.30;;;;;;4998218;28;20068;-81
2023/07/06 02:59:09;;;;;;;7.10;6.40;;;23.60;84.40;;;;;;5015210;28;20025;-81
2023/07/06 03:01:36;;;;;;;6.95;6.22;;;23.60;84.40;;;;;;4997610;28;20684;-81
2023/07/06 03:04:09;;;;;;;6.88;6.20;;;23.60;84.50;;;;;;4997839;28;20482;-81
2023/07/06 03:06:35;;;;;;;7.32;6.63;;;23.70;84.50;;;;;;4997698;28;20444;-81
2023/07/06 03:09:00;;;;;;;8.13;6.88;;;23.70;84.60;;;;;;4997313;28;20034;-81
2023/07/06 03:11:26;;;;;;;7.82;7.03;;;23.70;84.70;;;;;;4997901;28;20177;-81
2023/07/06 03:13:55;;;;;;;7.38;6.68;;;23.70;84.60;;;;;;5014744;28;20062;-81
2023/07/06 03:16:21;;;;;;;8.45;7.53;;;23.70;84.60;;;;;;4997206;28;20045;-81
2023/07/06 03:18:46;;;;;;;8.90;7.88;;;23.70;84.70;;;;;;4997165;28;20026;-81
2023/07/06 03:21:12;;;;;;;8.38;7.47;;;23.80;84.90;;;;;;5014781;28;20030;-81
2023/07/06 03:23:38;;;;;;;8.85;7.95;;;23.80;85.00;;;;;;4996808;28;20048;-81
2023/07/06 03:26:04;;;;;;;7.68;6.70;;;23.80;85.30;;;;;;4997046;28;20037;-81
2023/07/06 03:28:29;;;;;;;7.57;6.88;;;23.90;85.60;;;;;;5014274;28;20101;-81
2023/07/06 03:30:56;;;;;;;8.52;7.38;;;23.90;85.70;;;;;;5014209;28;20092;-81
2023/07/06 03:33:24;;;;;;;7.65;6.70;;;24.00;85.90;;;;;;5014300;28;20032;-81
2023/07/06 03:35:54;;;;;;;8.23;7.35;;;24.10;86.10;;;;;;4996613;28;20506;-81
2023/07/06 03:38:25;;;;;;;8.13;7.32;;;24.30;86.70;;;;;;4996483;28;20022;-81
2023/07/06 03:40:51;;;;;;;7.25;6.55;;;24.50;88.00;;;;;;4996627;28;20036;-81
2023/07/06 03:43:19;;;;;;;7.28;6.55;;;24.90;88.80;;;;;;4996203;28;20117;-81
2023/07/06 03:45:47;;;;;;;6.72;6.13;;;25.30;88.40;;;;;;4995830;28;20030;-81
2023/07/06 03:48:14;;;;;;;7.13;6.43;;;25.80;87.70;;;;;;5013815;28;20026;-81
2023/07/06 03:50:40;;;;;;;12.15;7.45;;;26.50;86.70;;;;;;5013897;28;20433;-81
2023/07/06 03:53:07;;;;;;;6.75;5.80;;;27.20;84.70;;;;;;5013638;28;20040;-81
2023/07/06 03:55:33;;;;;;;6.68;5.90;;;28.00;82.50;;;;;;4996382;28;20026;-81
2023/07/06 03:58:00;;;;;;;7.75;6.35;;;28.80;80.20;;;;;;4996128;28;20033;-81
2023/07/06 04:00:28;;;;;;;5.97;5.38;;;29.50;77.90;;;;;;4996716;28;20022;-82
2023/07/06 04:02:56;;;;;;;6.32;5.72;;;30.20;76.20;;;;;;5016641;28;20029;-83
2023/07/06 04:05:32;;;;;;;6.38;5.78;;;30.80;74.50;;;;;;4999042;28;20124;-81
2023/07/06 04:07:59;;;;;;;5.63;5.10;;;31.40;72.60;;;;;;5014077;28;20101;-81
2023/07/06 04:10:28;;;;;;;5.38;4.88;;;31.80;71.00;;;;;;4996367;28;20025;-82
2023/07/06 04:12:53;;;;;;;6.32;5.72;;;32.10;70.60;;;;;;4996593;28;20371;-83
2023/07/06 04:15:19;;;;;;;6.10;5.50;;;32.60;69.60;;;;;;4996212;28;20049;-82
2023/07/06 04:17:49;;;;;;;5.90;5.30;;;33.00;68.30;;;;;;4996783;28;20482;-83
2023/07/06 04:20:20;;;;;;;6.63;5.25;;;33.40;67.60;;;;;;5013676;28;20036;-82
2023/07/06 04:22:48;;;;;;;6.18;5.57;;;33.70;66.40;;;;;;4996129;28;20069;-83
2023/07/06 04:25:15;;;;;;;5.93;5.30;;;33.80;65.10;;;;;;5013983;28;20022;-82
2023/07/06 04:27:42;;;;;;;6.13;5.53;;;33.60;64.60;;;;;;5013619;28;20021;-82
2023/07/06 04:30:11;;;;;;;5.90;5.30;;;33.50;65.10;;;;;;4995967;28;20026;-82
2023/07/06 04:32:36;;;;;;;5.90;5.28;;;33.60;65.10;;;;;;4995713;28;20098;-83
2023/07/06 04:35:03;;;;;;;5.50;5.00;;;34.00;64.80;;;;;;4996665;28;20057;-82
2023/07/06 04:37:29;;;;;;;6.15;5.03;;;34.50;64.10;;;;;;5013433;28;20030;-83
2023/07/06 04:39:55;;;;;;;5.30;4.80;;;35.00;63.30;;;;;;4996264;28;20080;-83
2023/07/06 04:42:20;;;;;;;6.30;5.70;;;35.50;62.40;;;;;;4996468;28;20509;-83
2023/07/06 04:44:47;;;;;;;5.95;5.38;;;35.90;61.70;;;;;;4995380;28;20190;-82
2023/07/06 04:47:13;;;;;;;5.97;4.88;;;36.30;61.00;;;;;;5013343;28;20096;-83
2023/07/06 04:49:39;;;;;;;6.35;5.22;;;36.70;60.10;;;;;;4995056;28;20494;-83
2023/07/06 04:52:06;;;;;;;5.25;4.38;;;37.10;59.50;;;;;;5012331;28;20014;-83
2023/07/06 04:54:31;;;;;;;5.43;4.93;;;37.50;58.90;;;;;;5012561;28;20022;-83
2023/07/06 04:56:59;;;;;;;4.70;4.25;;;37.90;58.30;;;;;;4993761;28;20045;-83
2023/07/06 04:59:25;;;;;;;6.20;5.60;;;38.20;57.80;;;;;;5012138;28;20026;-83
2023/07/06 05:01:51;;;;;;;7.10;5.68;;;38.40;57.10;;;;;;4994529;28;20026;-83
2023/07/06 05:04:17;;;;;;;6.72;5.90;;;38.70;56.60;;;;;;4994097;28;20033;-83
2023/07/06 05:06:43;;;;;;;6.22;5.63;;;38.90;55.60;;;;;;5012029;28;20030;-83
2023/07/06 05:09:09;;;;;;;8.18;6.35;;;38.80;54.90;;;;;;5012692;28;20148;-83
2023/07/06 05:11:35;;;;;;;8.00;7.20;;;38.60;54.20;;;;;;4995818;28;20088;-82
2023/07/06 05:14:01;;;;;;;8.00;6.40;;;38.00;53.60;;;;;;4996161;28;20136;-82
2023/07/06 05:16:27;;;;;;;7.43;6.72;;;37.00;54.10;;;;;;4995215;28;20065;-82
2023/07/06 05:18:52;;;;;;;8.25;7.45;;;36.00;54.90;;;;;;5012195;28;20024;-82
2023/07/06 05:21:18;;;;;;;7.50;6.80;;;35.20;55.90;;;;;;4995598;28;20033;-82
2023/07/06 05:23:44;;;;;;;8.48;7.63;;;34.30;56.80;;;;;;4994745;28;20033;-81
2023/07/06 05:26:10;;;;;;;7.53;6.82;;;33.60;57.70;;;;;;4994544;28;20037;-82
2023/07/06 05:28:35;;;;;;;7.53;6.82;;;32.90;58.50;;;;;;4994236;28;20049;-82
2023/07/06 05:31:03;;;;;;;9.93;7.97;;;32.30;59.40;;;;;;4994892;28;20041;-82
2023/07/06 05:33:30;;;;;;;9.07;8.18;;;31.80;60.20;;;;;;4994414;28;20057;-82
2023/07/06 05:35:56;;;;;;;9.70;8.23;;;31.40;61.20;;;;;;4994263;28;20030;-82
2023/07/06 05:38:21;;;;;;;9.52;8.48;;;30.90;61.90;;;;;;4994403;28;20037;-82
2023/07/06 05:40:47;;;;;;;9.48;8.57;;;30.50;62.50;;;;;;4994488;28;20454;-82
2023/07/06 05:43:15;;;;;;;10.23;9.23;;;30.20;63.30;;;;;;4994926;28;20116;-82
2023/07/06 05:45:40;;;;;;;8.90;8.00;;;29.80;64.20;;;;;;5010830;28;20486;-82
2023/07/06 05:48:06;;;;;;;10.45;9.45;;;29.50;64.60;;;;;;4991678;28;20060;-82
2023/07/06 05:50:31;;;;;;;11.15;9.85;;;29.30;65.40;;;;;;4992377;28;20038;-82
2023/07/06 05:52:57;;;;;;;11.93;10.77;;;29.00;66.10;;;;;;4993112;28;20061;-82
2023/07/06 05:55:23;;;;;;;15.38;13.75;;;28.70;66.70;;;;;;4993108;28;20052;-81
2023/07/06 05:57:50;;;;;;;13.90;12.50;;;28.50;67.60;;;;;;4993606;28;20437;-81
2023/07/06 06:00:15;;;;;;;13.55;12.15;;;28.20;69.00;;;;;;5012260;28;20389;-81
2023/07/06 06:02:44;;;;;;;13.02;11.68;;;28.00;69.20;;;;;;4994322;28;20021;-81
2023/07/06 06:05:13;;;;;;;11.40;10.30;;;27.80;69.90;;;;;;5011012;28;20084;-81
2023/07/06 06:07:40;;;;;;;11.82;10.07;;;27.70;70.50;;;;;;4992788;28;20026;-82
2023/07/06 06:10:06;;;;;;;11.00;9.90;;;27.60;71.10;;;;;;5013730;28;20029;-82
2023/07/06 06:12:32;;;;;;;11.65;10.50;;;27.50;71.40;;;;;;5014605;28;20104;-82
2023/07/06 06:14:58;;;;;;;10.73;9.63;;;27.40;71.70;;;;;;5013633;28;20026;-82
2023/07/06 06:17:27;;;;;;;10.65;9.65;;;27.30;72.10;;;;;;4996344;28;20045;-81
2023/07/06 06:19:52;;;;;;;10.90;9.80;;;27.30;72.30;;;;;;5014551;28;20541;-81
2023/07/06 06:22:19;;;;;;;10.45;9.35;;;27.20;72.70;;;;;;5014941;28;20064;-81
2023/07/06 06:24:45;;;;;;;10.45;9.45;;;27.10;73.00;;;;;;5015007;28;20014;-81
2023/07/06 06:27:14;;;;;;;10.20;9.20;;;27.10;73.60;;;;;;5015179;28;20053;-81
2023/07/06 06:29:42;;;;;;;10.27;9.35;;;27.00;74.00;;;;;;4997391;28;20068;-81
2023/07/06 06:32:08;;;;;;;9.55;8.65;;;27.00;74.40;;;;;;5013533;28;20033;-81
2023/07/06 06:34:38;;;;;;;9.98;8.98;;;26.90;74.70;;;;;;5012539;28;20083;-81
2023/07/06 06:37:04;;;;;;;9.57;8.68;;;26.90;75.20;;;;;;5013355;28;20099;-82
2023/07/06 06:39:33;;;;;;;9.13;8.23;;;26.90;75.40;;;;;;4995772;28;20030;-82
2023/07/06 06:42:00;;;;;;;9.35;8.45;;;26.90;75.50;;;;;;4996552;28;20037;-81
2023/07/06 06:44:28;;;;;;;9.65;8.75;;;26.90;75.90;;;;;;4996853;28;20025;-81
2023/07/06 06:46:56;;;;;;;9.55;8.65;;;26.90;76.10;;;;;;4996848;28;20029;-82
2023/07/06 06:49:22;;;;;;;10.07;8.75;;;27.00;76.30;;;;;;4996558;28;20033;-81
2023/07/06 06:51:48;;;;;;;9.32;8.43;;;27.00;76.40;;;;;;5013073;28;20084;-81
2023/07/06 06:54:14;;;;;;;9.43;8.52;;;27.00;76.60;;;;;;4996040;28;20430;-82
2023/07/06 06:56:40;;;;;;;9.75;8.77;;;27.10;76.80;;;;;;4996570;28;20030;-81
2023/07/06 06:59:07;;;;;;;10.25;9.15;;;27.20;77.00;;;;;;4996651;28;20017;-81
2023/07/06 07:01:33;;;;;;;9.32;8.43;;;27.20;77.00;;;;;;4997062;28;20136;-81
2023/07/06 07:04:00;;;;;;;9.20;8.35;;;27.30;77.00;;;;;;5014278;28;20522;-82
2023/07/06 07:06:28;;;;;;;9.48;8.57;;;27.40;77.40;;;;;;5014308;28;20030;-82
2023/07/06 07:08:54;;;;;;;9.65;8.70;;;27.50;77.50;;;;;;4996472;28;20030;-81
2023/07/06 07:11:20;;;;;;;9.73;8.80;;;27.70;77.40;;;;;;4996728;28;20037;-82
2023/07/06 07:13:51;;;;;;;9.70;8.80;;;27.90;77.20;;;;;;4997134;28;20066;-81
2023/07/06 07:16:19;;;;;;;9.65;8.75;;;28.00;77.00;;;;;;5014247;28;20073;-81
2023/07/06 07:18:45;;;;;;;10.13;9.23;;;28.20;77.00;;;;;;4996340;28;20112;-82
2023/07/06 07:21:12;;;;;;;13.00;11.73;;;28.30;76.60;;;;;;5013471;28;20026;-81
2023/07/06 07:23:43;;;;;;;11.85;10.85;;;28.50;76.40;;;;;;4996292;28;20076;-82
2023/07/06 07:26:12;;;;;;;11.75;10.75;;;28.60;76.10;;;;;;4996527;28;20026;-82
2023/07/06 07:28:38;;;;;;;11.85;10.75;;;28.60;75.80;;;;;;5013916;28;20026;-82
2023/07/06 07:31:07;;;;;;;11.75;10.65;;;28.70;75.60;;;;;;4996217;28;20088;-81
2023/07/06 07:33:32;;;;;;;11.13;10.05;;;28.70;75.50;;;;;;5014400;28;20022;-82
2023/07/06 07:36:03;;;;;;;10.57;9.52;;;28.70;75.30;;;;;;4996042;28;20474;-82
2023/07/06 07:38:29;;;;;;;10.13;9.18;;;28.80;75.20;;;;;;4995998;28;20031;-82
2023/07/06 07:41:00;;;;;;;9.75;8.85;;;28.80;75.10;;;;;;4996325;28;20389;-81
2023/07/06 07:43:28;;;;;;;9.73;8.73;;;28.80;75.00;;;;;;5013825;28;20478;-81
2023/07/06 07:46:00;;;;;;;9.65;8.75;;;28.90;74.70;;;;;;4996183;28;20479;-82
2023/07/06 07:48:27;;;;;;;9.68;8.77;;;28.80;74.60;;;;;;4996206;28;20034;-82
2023/07/06 07:50:56;;;;;;;9.30;8.40;;;28.90;74.50;;;;;;4996308;28;20041;-82
2023/07/06 07:53:24;;;;;;;10.00;9.05;;;28.80;74.20;;;;;;5011923;28;20018;-82
2023/07/06 07:55:50;;;;;;;9.80;8.90;;;28.80;74.10;;;;;;4995536;28;20103;-83
2023/07/06 07:58:16;;;;;;;9.95;9.02;;;28.80;74.20;;;;;;4995769;28;20018;-82
2023/07/06 08:00:55;;;;;;;10.75;9.75;;;28.90;74.10;;;;;;4995843;28;20390;-83
2023/07/06 08:03:24;;;;;;;11.15;10.05;;;28.90;74.20;;;;;;4995723;28;20018;-83
2023/07/06 08:05:55;;;;;;;8.88;8.07;;;28.90;74.20;;;;;;4995632;28;20057;-82
2023/07/06 08:08:25;;;;;;;9.30;8.40;;;28.90;74.10;;;;;;4995487;28;20026;-82
2023/07/06 08:10:55;;;;;;;9.65;8.75;;;28.90;73.90;;;;;;4995688;28;20057;-83
2023/07/06 08:13:22;;;;;;;9.95;9.05;;;28.80;73.80;;;;;;4995625;28;20026;-83
2023/07/06 08:15:48;;;;;;;9.90;8.70;;;28.80;73.90;;;;;;4995712;28;20092;-83
2023/07/06 08:18:15;;;;;;;10.30;9.30;;;28.80;73.60;;;;;;4995785;28;20488;-83
2023/07/06 08:20:43;;;;;;;10.00;9.10;;;28.80;74.30;;;;;;5013095;28;20477;-83
2023/07/06 08:23:11;;;;;;;10.70;9.57;;;28.80;73.80;;;;;;4995117;28;20032;-83
2023/07/06 08:25:38;;;;;;;11.18;10.10;;;28.80;73.90;;;;;;4995271;28;20029;-83
2023/07/06 08:28:09;;;;;;;10.07;9.18;;;28.70;73.90;;;;;;4995380;28;20601;-83
2023/07/06 08:30:38;;;;;;;10.10;9.10;;;28.80;73.90;;;;;;4995242;28;20029;-83
2023/07/06 08:33:04;;;;;;;10.02;9.02;;;28.70;74.10;;;;;;4995196;28;20069;-83
2023/07/06 08:35:30;;;;;;;9.50;8.70;;;28.70;74.20;;;;;;4995152;28;20458;-83
2023/07/06 08:37:57;;;;;;;9.63;8.73;;;28.70;74.10;;;;;;4994986;28;20390;-83
2023/07/06 08:40:30;;;;;;;10.65;9.57;;;28.60;74.00;;;;;;4993978;28;20481;-83
2023/07/06 08:42:57;;;;;;;10.07;9.10;;;28.60;74.20;;;;;;4995404;28;20022;-83
2023/07/06 08:45:27;;;;;;;9.63;8.73;;;28.60;74.60;;;;;;5012809;28;20022;-83
2023/07/06 08:47:56;;;;;;;9.93;8.93;;;28.50;74.60;;;;;;4995155;28;20022;-83
2023/07/06 08:50:28;;;;;;;9.35;8.43;;;28.50;74.30;;;;;;4994993;28;20116;-83
2023/07/06 08:52:56;;;;;;;8.50;7.70;;;28.50;74.20;;;;;;5012597;28;20037;-83
2023/07/06 08:55:22;;;;;;;10.38;9.27;;;28.40;74.10;;;;;;4994867;28;20030;-83
2023/07/06 08:57:49;;;;;;;10.30;9.30;;;28.40;74.00;;;;;;5012187;28;20026;-83
2023/07/06 09:00:27;;;;;;;10.05;8.80;;;28.40;74.10;;;;;;4992965;28;20072;-83
2023/07/06 09:02:55;;;;;;;10.15;9.20;;;28.40;74.00;;;;;;5010372;28;20379;-83
2023/07/06 09:05:22;;;;;;;10.45;9.45;;;28.30;74.00;;;;;;4992920;28;20135;-83
2023/07/06 09:07:48;;;;;;;10.18;9.18;;;28.30;73.90;;;;;;4993222;28;20025;-83
2023/07/06 09:10:20;;;;;;;9.48;8.43;;;28.30;73.90;;;;;;4992643;28;20033;-83
2023/07/06 09:12:46;;;;;;;9.98;8.98;;;28.30;74.00;;;;;;4992602;28;20025;-83
2023/07/06 09:15:18;;;;;;;9.32;8.43;;;28.30;73.60;;;;;;4992836;28;20029;-83
2023/07/06 09:17:50;;;;;;;8.25;7.47;;;28.30;73.50;;;;;;5010666;28;20022;-83
2023/07/06 09:20:18;;;;;;;8.55;7.75;;;28.20;73.50;;;;;;4994236;28;20036;-83
2023/07/06 09:22:45;;;;;;;9.70;8.80;;;28.20;73.60;;;;;;4994704;28;20029;-83
2023/07/06 09:25:17;;;;;;;9.48;8.57;;;28.20;73.80;;;;;;5011996;28;20030;-83
2023/07/06 09:27:50;;;;;;;9.43;8.43;;;28.10;74.70;;;;;;4994563;28;20076;-83
2023/07/06 09:30:33;;;;;;;8.65;7.85;;;28.10;74.00;;;;;;5012173;28;20492;-83
2023/07/06 09:33:14;;;;;;;9.95;8.93;;;28.20;74.30;;;;;;4994323;28;20026;-83
2023/07/06 09:35:41;;;;;;;9.75;8.75;;;28.10;74.70;;;;;;4994498;28;20034;-83
2023/07/06 09:38:12;;;;;;;9.52;8.60;;;28.20;74.90;;;;;;5011852;28;20029;-83
2023/07/06 09:40:38;;;;;;;8.75;7.85;;;28.20;74.90;;;;;;4994221;28;20026;-83
2023/07/06 09:43:03;;;;;;;9.70;8.80;;;28.20;74.80;;;;;;4995849;28;20026;-83
2023/07/06 09:45:31;;;;;;;9.02;8.13;;;28.10;74.70;;;;;;5015932;28;20026;-83
2023/07/06 09:48:13;;;;;;;8.77;7.97;;;28.10;74.50;;;;;;5015986;28;20054;-83
2023/07/06 09:50:43;;;;;;;8.55;7.75;;;28.10;74.60;;;;;;4998222;28;20485;-83
2023/07/06 09:53:19;;;;;;;8.10;7.30;;;28.10;74.50;;;;;;5015045;28;20562;-83
2023/07/06 09:55:44;;;;;;;8.52;7.72;;;28.10;74.60;;;;;;4996147;28;20030;-83
2023/07/06 09:58:19;;;;;;;9.10;8.30;;;28.10;74.40;;;;;;4995689;28;20556;-83
2023/07/06 10:00:52;;;;;;;9.32;8.38;;;28.20;74.30;;;;;;4997298;28;20022;-83
2023/07/06 10:03:27;;;;;;;8.93;8.02;;;28.20;74.30;;;;;;5015209;28;20022;-83
2023/07/06 10:06:04;;;;;;;8.48;7.68;;;28.20;74.20;;;;;;4997146;28;20167;-83
2023/07/06 10:08:44;;;;;;;8.32;7.45;;;28.20;74.10;;;;;;4996540;28;20026;-83
2023/07/06 10:11:21;;;;;;;8.43;7.60;;;28.20;74.10;;;;;;4994993;28;20034;-83
2023/07/06 10:13:56;;;;;;;8.60;7.80;;;28.20;74.20;;;;;;4995743;28;20282;-83
2023/07/06 10:16:22;;;;;;;8.85;7.95;;;28.20;74.30;;;;;;4996682;28;20053;-83
2023/07/06 10:18:52;;;;;;;8.98;8.10;;;28.20;74.40;;;;;;4997213;28;20156;-83
2023/07/06 10:21:37;;;;;;;8.73;7.93;;;28.20;74.40;;;;;;4997451;28;20022;-83
2023/07/06 10:24:16;;;;;;;7.78;7.07;;;28.20;74.20;;;;;;5016260;28;20084;-83
2023/07/06 10:26:49;;;;;;;8.20;7.35;;;28.20;74.20;;;;;;4997580;28;20505;-83
2023/07/06 10:29:21;;;;;;;7.65;6.95;;;28.20;74.20;;;;;;4997299;28;20072;-83
2023/07/06 10:31:52;;;;;;;8.45;7.03;;;28.20;74.10;;;;;;4997787;28;20025;-83
2023/07/06 10:34:26;;;;;;;7.95;7.15;;;28.20;74.20;;;;;;5015782;28;20022;-83
2023/07/06 10:36:52;;;;;;;8.70;7.90;;;28.30;74.40;;;;;;4998537;28;20034;-83
2023/07/06 10:39:23;;;;;;;7.70;7.00;;;28.30;74.40;;;;;;4998048;28;20112;-83
2023/07/06 10:42:00;;;;;;;7.53;6.82;;;28.30;74.40;;;;;;4997824;28;20096;-83
2023/07/06 10:44:45;;;;;;;7.50;6.78;;;28.30;74.30;;;;;;5015934;28;20103;-83
2023/07/06 10:47:41;;;;;;;7.13;6.38;;;28.30;74.50;;;;;;5014661;28;20022;-83
2023/07/06 10:50:22;;;;;;;7.45;6.75;;;28.30;74.40;;;;;;4980513;28;20364;-83
2023/07/06 10:53:21;;;;;;;7.50;6.72;;;28.30;74.60;;;;;;4995066;28;20477;-83
2023/07/06 10:56:02;;;;;;;7.15;6.45;;;28.30;74.40;;;;;;4994633;28;20057;-83
2023/07/06 10:58:30;;;;;;;7.10;6.40;;;28.30;74.40;;;;;;5014095;28;20084;-83
2023/07/06 11:00:59;;;;;;;6.95;6.35;;;28.30;74.70;;;;;;4999996;28;20029;-84
2023/07/06 11:03:27;;;;;;;7.38;6.68;;;28.30;75.50;;;;;;5016740;28;20029;-84
2023/07/06 11:06:05;;;;;;;7.18;6.47;;;28.30;75.20;;;;;;4996365;28;20030;-85
2023/07/06 11:09:05;;;;;;;7.28;6.57;;;28.30;75.90;;;;;;5018403;28;20390;-83
2023/07/06 11:11:41;;;;;;;8.43;7.28;;;28.40;75.50;;;;;;4997692;28;20109;-84
2023/07/06 11:14:23;;;;;;;7.90;6.95;;;28.40;75.60;;;;;;4996701;28;20034;-83
2023/07/06 11:17:03;;;;;;;8.02;7.22;;;28.50;75.50;;;;;;4994894;28;20100;-83
2023/07/06 11:19:38;;;;;;;7.50;6.80;;;28.50;75.50;;;;;;4995527;28;20482;-83
2023/07/06 11:22:13;;;;;;;7.63;6.88;;;28.60;75.60;;;;;;4995236;28;20054;-83
2023/07/06 11:24:48;;;;;;;7.15;6.45;;;28.60;75.20;;;;;;4996344;28;20402;-84
2023/07/06 11:27:24;;;;;;;7.32;6.63;;;28.60;75.10;;;;;;4996469;28;20026;-83
2023/07/06 11:29:53;;;;;;;8.20;7.05;;;28.70;74.90;;;;;;4996529;28;20092;-83
2023/07/06 11:32:31;;;;;;;7.63;6.82;;;28.60;74.80;;;;;;4996456;28;20083;-83
2023/07/06 11:35:14;;;;;;;8.98;6.80;;;28.60;74.70;;;;;;4997248;28;20022;-82
2023/07/06 11:38:05;;;;;;;7.20;6.50;;;28.60;74.60;;;;;;5003159;28;20030;-83
2023/07/06 11:41:00;;;;;;;7.10;6.40;;;28.60;74.40;;;;;;5002366;28;20026;-83
2023/07/06 11:44:08;;;;;;;7.20;6.50;;;28.60;74.20;;;;;;5003640;28;20052;-85
2023/07/06 11:47:02;;;;;;;6.45;5.85;;;28.60;74.10;;;;;;4986311;28;20045;-82
2023/07/06 11:49:47;;;;;;;7.05;6.30;;;28.60;74.20;;;;;;4997634;28;20084;-83
2023/07/06 11:52:36;;;;;;;7.32;6.22;;;28.60;74.30;;;;;;4997327;28;20026;-83
2023/07/06 11:55:18;;;;;;;6.85;6.25;;;28.60;74.50;;;;;;4996439;28;20034;-83
2023/07/06 11:58:28;;;;;;;7.10;6.40;;;28.60;74.60;;;;;;5013480;28;20531;-83
2023/07/06 12:00:58;;;;;;;6.90;6.30;;;28.60;74.60;;;;;;5013779;28;20024;-83
2023/07/06 12:03:26;;;;;;;7.57;6.78;;;28.60;74.50;;;;;;4996078;28;20029;-83
2023/07/06 12:05:56;;;;;;;7.63;6.82;;;28.60;74.50;;;;;;4995894;28;20025;-83
2023/07/06 12:08:37;;;;;;;7.90;7.10;;;28.60;74.60;;;;;;4995760;28;20022;-83
2023/07/06 12:11:10;;;;;;;8.13;7.32;;;28.70;74.80;;;;;;4995730;28;20054;-83
2023/07/06 12:13:41;;;;;;;7.70;6.88;;;28.70;75.10;;;;;;4995928;28;20498;-83
2023/07/06 12:16:11;;;;;;;7.88;7.13;;;28.70;74.90;;;;;;4992223;28;20066;-83
2023/07/06 12:18:38;;;;;;;8.07;7.28;;;28.70;74.70;;;;;;4992331;28;20042;-83
2023/07/06 12:21:12;;;;;;;8.07;7.25;;;28.70;74.70;;;;;;4992626;28;20480;-83
2023/07/06 12:23:39;;;;;;;7.82;6.88;;;28.70;75.00;;;;;;4992288;28;20113;-83
2023/07/06 12:26:14;;;;;;;7.93;6.85;;;28.80;75.10;;;;;;4992306;28;20035;-83
2023/07/06 12:28:44;;;;;;;7.47;6.78;;;28.80;75.10;;;;;;4992783;28;20121;-83
2023/07/06 12:31:10;;;;;;;8.13;7.40;;;28.80;75.30;;;;;;4993727;28;20022;-83
2023/07/06 12:33:36;;;;;;;8.00;7.20;;;28.80;75.60;;;;;;4993292;28;20069;-83
2023/07/06 12:36:05;;;;;;;9.23;8.02;;;28.80;75.90;;;;;;4992188;28;20030;-83
2023/07/06 12:38:34;;;;;;;8.18;7.22;;;28.80;76.10;;;;;;4993462;28;20098;-83
2023/07/06 12:41:13;;;;;;;7.40;6.70;;;28.80;76.00;;;;;;4993110;28;20053;-83
2023/07/06 12:43:39;;;;;;;7.40;6.70;;;28.90;75.80;;;;;;4993313;28;20048;-83
2023/07/06 12:46:04;;;;;;;7.65;6.95;;;28.90;75.70;;;;;;4991850;28;20125;-83
2023/07/06 12:48:32;;;;;;;7.95;6.90;;;28.90;75.70;;;;;;4993853;28;20033;-83
2023/07/06 12:51:09;;;;;;;10.27;7.70;;;29.00;75.30;;;;;;4993335;28;20026;-83
2023/07/06 12:53:35;;;;;;;8.63;7.72;;;29.00;75.20;;;;;;4992133;28;20030;-84
2023/07/06 12:56:08;;;;;;;10.07;7.82;;;29.10;75.20;;;;;;4993342;28;20084;-83
2023/07/06 12:58:37;;;;;;;10.25;8.05;;;29.10;74.80;;;;;;4991928;28;20022;-84
2023/07/06 13:01:10;;;;;;;8.57;7.85;;;29.20;75.10;;;;;;4991843;28;20022;-83